sensor_id;sensor_type;location;lat;lon;timestamp;temperature;humidity
65396;HTU21D;52004;45.136;39.010;2023-10-31T00:02:17;11.24;59.81
65396;HTU21D;52004;45.136;39.010;2023-10-31T00:04:43;11.23;59.90
65396;HTU21D;52004;45.136;39.010;2023-10-31T00:07:08;11.20;59.93
65396;HTU21D;52004;45.136;39.010;2023-10-31T00:09:34;11.16;59.88
65396;HTU21D;52004;45.136;39.010;2023-10-31T00:12:00;11.12;59.93
65396;HTU21D;52004;45.136;39.010;2023-10-31T00:14:26;11.09;59.98
65396;HTU21D;52004;45.136;39.010;2023-10-31T00:16:52;11.04;59.96
65396;HTU21D;52004;45.136;39.010;2023-10-31T00:19:18;11.01;60.02
65396;HTU21D;52004;45.136;39.010;2023-10-31T00:21:44;11.00;60.05
65396;HTU21D;52004;45.136;39.010;2023-10-31T00:24:10;10.98;60.06
65396;HTU21D;52004;45.136;39.010;2023-10-31T00:26:36;10.95;60.01
65396;HTU21D;52004;45.136;39.010;2023-10-31T00:29:02;10.90;60.02
65396;HTU21D;52004;45.136;39.010;2023-10-31T00:31:27;10.84;60.14
65396;HTU21D;52004;45.136;39.010;2023-10-31T00:33:53;10.81;60.22
65396;HTU21D;52004;45.136;39.010;2023-10-31T00:36:20;10.79;60.26
65396;HTU21D;52004;45.136;39.010;2023-10-31T00:38:46;10.77;60.28
65396;HTU21D;52004;45.136;39.010;2023-10-31T00:41:12;10.77;60.31
65396;HTU21D;52004;45.136;39.010;2023-10-31T00:43:39;10.78;60.30
65396;HTU21D;52004;45.136;39.010;2023-10-31T00:46:05;10.78;60.26
65396;HTU21D;52004;45.136;39.010;2023-10-31T00:48:32;10.77;60.24
65396;HTU21D;52004;45.136;39.010;2023-10-31T00:51:02;10.75;60.22
65396;HTU21D;52004;45.136;39.010;2023-10-31T00:53:28;10.75;60.18
65396;HTU21D;52004;45.136;39.010;2023-10-31T00:56:18;10.74;60.18
65396;HTU21D;52004;45.136;39.010;2023-10-31T00:58:45;10.73;60.19
65396;HTU21D;52004;45.136;39.010;2023-10-31T01:01:12;10.70;60.17
65396;HTU21D;52004;45.136;39.010;2023-10-31T01:03:37;10.65;60.22
65396;HTU21D;52004;45.136;39.010;2023-10-31T01:06:04;10.62;60.35
65396;HTU21D;52004;45.136;39.010;2023-10-31T01:08:30;10.60;60.36
65396;HTU21D;52004;45.136;39.010;2023-10-31T01:10:56;10.58;60.38
65396;HTU21D;52004;45.136;39.010;2023-10-31T01:13:21;10.57;60.42
65396;HTU21D;52004;45.136;39.010;2023-10-31T01:15:47;10.56;60.41
65396;HTU21D;52004;45.136;39.010;2023-10-31T01:18:15;10.55;60.43
65396;HTU21D;52004;45.136;39.010;2023-10-31T01:20:41;10.54;60.44
65396;HTU21D;52004;45.136;39.010;2023-10-31T01:23:06;10.53;60.44
65396;HTU21D;52004;45.136;39.010;2023-10-31T01:25:32;10.53;60.47
65396;HTU21D;52004;45.136;39.010;2023-10-31T01:27:58;10.52;60.48
65396;HTU21D;52004;45.136;39.010;2023-10-31T01:30:24;10.51;60.47
65396;HTU21D;52004;45.136;39.010;2023-10-31T01:32:50;10.49;60.48
65396;HTU21D;52004;45.136;39.010;2023-10-31T01:35:15;10.50;60.47
65396;HTU21D;52004;45.136;39.010;2023-10-31T01:37:41;10.45;60.50
65396;HTU21D;52004;45.136;39.010;2023-10-31T01:40:08;10.45;60.50
65396;HTU21D;52004;45.136;39.010;2023-10-31T01:42:38;10.41;60.47
65396;HTU21D;52004;45.136;39.010;2023-10-31T01:45:04;10.38;60.50
65396;HTU21D;52004;45.136;39.010;2023-10-31T01:47:30;10.34;60.54
65396;HTU21D;52004;45.136;39.010;2023-10-31T01:49:56;10.30;60.61
65396;HTU21D;52004;45.136;39.010;2023-10-31T01:52:23;10.29;60.64
65396;HTU21D;52004;45.136;39.010;2023-10-31T01:54:49;10.26;60.67
65396;HTU21D;52004;45.136;39.010;2023-10-31T01:57:15;10.26;60.70
65396;HTU21D;52004;45.136;39.010;2023-10-31T01:59:41;10.24;60.70
65396;HTU21D;52004;45.136;39.010;2023-10-31T02:02:07;10.21;60.71
65396;HTU21D;52004;45.136;39.010;2023-10-31T02:04:33;10.19;60.76
65396;HTU21D;52004;45.136;39.010;2023-10-31T02:06:59;10.18;60.81
65396;HTU21D;52004;45.136;39.010;2023-10-31T02:09:25;10.16;60.80
65396;HTU21D;52004;45.136;39.010;2023-10-31T02:11:54;10.14;60.78
65396;HTU21D;52004;45.136;39.010;2023-10-31T02:14:21;10.13;60.80
65396;HTU21D;52004;45.136;39.010;2023-10-31T02:16:49;10.11;60.76
65396;HTU21D;52004;45.136;39.010;2023-10-31T02:19:16;10.10;60.83
65396;HTU21D;52004;45.136;39.010;2023-10-31T02:21:44;10.10;60.85
65396;HTU21D;52004;45.136;39.010;2023-10-31T02:24:10;10.07;60.89
65396;HTU21D;52004;45.136;39.010;2023-10-31T02:26:37;10.06;60.99
65396;HTU21D;52004;45.136;39.010;2023-10-31T02:29:03;10.05;60.99
65396;HTU21D;52004;45.136;39.010;2023-10-31T02:31:29;10.06;61.02
65396;HTU21D;52004;45.136;39.010;2023-10-31T02:33:55;10.05;61.05
65396;HTU21D;52004;45.136;39.010;2023-10-31T02:36:21;10.08;61.05
65396;HTU21D;52004;45.136;39.010;2023-10-31T02:38:47;10.08;61.05
65396;HTU21D;52004;45.136;39.010;2023-10-31T02:41:13;10.08;61.05
65396;HTU21D;52004;45.136;39.010;2023-10-31T02:43:39;10.09;61.02
65396;HTU21D;52004;45.136;39.010;2023-10-31T02:46:05;10.10;61.04
65396;HTU21D;52004;45.136;39.010;2023-10-31T02:48:31;10.09;61.02
65396;HTU21D;52004;45.136;39.010;2023-10-31T02:51:04;10.11;61.03
65396;HTU21D;52004;45.136;39.010;2023-10-31T02:53:30;10.11;61.05
65396;HTU21D;52004;45.136;39.010;2023-10-31T02:55:55;10.10;61.03
65396;HTU21D;52004;45.136;39.010;2023-10-31T02:58:21;10.07;61.01
65396;HTU21D;52004;45.136;39.010;2023-10-31T03:00:47;10.04;61.06
65396;HTU21D;52004;45.136;39.010;2023-10-31T03:03:13;10.04;61.10
65396;HTU21D;52004;45.136;39.010;2023-10-31T03:05:39;10.03;61.11
65396;HTU21D;52004;45.136;39.010;2023-10-31T03:08:05;10.01;61.12
65396;HTU21D;52004;45.136;39.010;2023-10-31T03:10:33;9.98;61.12
65396;HTU21D;52004;45.136;39.010;2023-10-31T03:12:58;9.96;61.09
65396;HTU21D;52004;45.136;39.010;2023-10-31T03:15:24;9.94;61.09
65396;HTU21D;52004;45.136;39.010;2023-10-31T03:17:50;9.88;61.14
65396;HTU21D;52004;45.136;39.010;2023-10-31T03:20:16;9.85;61.22
65396;HTU21D;52004;45.136;39.010;2023-10-31T03:22:42;9.83;61.27
65396;HTU21D;52004;45.136;39.010;2023-10-31T03:25:08;9.81;61.31
65396;HTU21D;52004;45.136;39.010;2023-10-31T03:27:34;0.00;61.32
65396;HTU21D;52004;45.136;39.010;2023-10-31T03:30:00;9.78;61.33
65396;HTU21D;52004;45.136;39.010;2023-10-31T03:32:26;9.74;61.34
65396;HTU21D;52004;45.136;39.010;2023-10-31T03:34:52;9.76;61.39
65396;HTU21D;52004;45.136;39.010;2023-10-31T03:37:18;9.75;61.40
65396;HTU21D;52004;45.136;39.010;2023-10-31T03:39:44;9.74;61.42
65396;HTU21D;52004;45.136;39.010;2023-10-31T03:42:10;9.77;61.41
65396;HTU21D;52004;45.136;39.010;2023-10-31T03:44:36;9.77;61.38
65396;HTU21D;52004;45.136;39.010;2023-10-31T03:47:01;9.79;61.34
65396;HTU21D;52004;45.136;39.010;2023-10-31T03:49:27;9.77;61.34
65396;HTU21D;52004;45.136;39.010;2023-10-31T03:51:53;9.76;61.38
65396;HTU21D;52004;45.136;39.010;2023-10-31T03:54:19;9.75;61.43
65396;HTU21D;52004;45.136;39.010;2023-10-31T03:56:45;9.76;61.44
65396;HTU21D;52004;45.136;39.010;2023-10-31T03:59:12;9.76;61.43
65396;HTU21D;52004;45.136;39.010;2023-10-31T04:01:38;9.75;61.44
65396;HTU21D;52004;45.136;39.010;2023-10-31T04:04:03;9.74;61.48
65396;HTU21D;52004;45.136;39.010;2023-10-31T04:06:29;0.00;61.51
65396;HTU21D;52004;45.136;39.010;2023-10-31T04:08:55;9.72;61.54
65396;HTU21D;52004;45.136;39.010;2023-10-31T04:11:21;9.74;61.54
65396;HTU21D;52004;45.136;39.010;2023-10-31T04:13:47;9.75;61.53
65396;HTU21D;52004;45.136;39.010;2023-10-31T04:16:13;9.76;61.54
65396;HTU21D;52004;45.136;39.010;2023-10-31T04:18:39;9.76;61.57
65396;HTU21D;52004;45.136;39.010;2023-10-31T04:21:05;9.77;61.57
65396;HTU21D;52004;45.136;39.010;2023-10-31T04:23:31;9.79;61.60
65396;HTU21D;52004;45.136;39.010;2023-10-31T04:25:57;9.83;61.62
65396;HTU21D;52004;45.136;39.010;2023-10-31T04:28:23;9.83;61.65
65396;HTU21D;52004;45.136;39.010;2023-10-31T04:30:49;9.85;61.67
65396;HTU21D;52004;45.136;39.010;2023-10-31T04:33:15;9.89;61.67
65396;HTU21D;52004;45.136;39.010;2023-10-31T04:35:40;9.90;61.67
65396;HTU21D;52004;45.136;39.010;2023-10-31T04:38:06;9.94;61.71
65396;HTU21D;52004;45.136;39.010;2023-10-31T04:40:32;9.97;61.75
65396;HTU21D;52004;45.136;39.010;2023-10-31T04:42:58;9.98;61.78
65396;HTU21D;52004;45.136;39.010;2023-10-31T04:45:24;10.06;61.90
65396;HTU21D;52004;45.136;39.010;2023-10-31T04:47:50;10.20;62.16
65396;HTU21D;52004;45.136;39.010;2023-10-31T04:50:16;10.38;62.07
65396;HTU21D;52004;45.136;39.010;2023-10-31T04:52:42;10.53;61.85
65396;HTU21D;52004;45.136;39.010;2023-10-31T04:55:07;10.63;61.65
65396;HTU21D;52004;45.136;39.010;2023-10-31T04:57:33;10.71;61.64
65396;HTU21D;52004;45.136;39.010;2023-10-31T04:59:59;10.82;61.75
65396;HTU21D;52004;45.136;39.010;2023-10-31T05:02:25;10.94;61.82
65396;HTU21D;52004;45.136;39.010;2023-10-31T05:04:51;11.16;62.09
65396;HTU21D;52004;45.136;39.010;2023-10-31T05:07:17;11.44;62.03
65396;HTU21D;52004;45.136;39.010;2023-10-31T05:09:43;11.74;61.91
65396;HTU21D;52004;45.136;39.010;2023-10-31T05:12:09;11.93;61.76
65396;HTU21D;52004;45.136;39.010;2023-10-31T05:14:35;12.14;61.73
65396;HTU21D;52004;45.136;39.010;2023-10-31T05:17:01;12.36;61.76
65396;HTU21D;52004;45.136;39.010;2023-10-31T05:19:27;12.67;61.92
65396;HTU21D;52004;45.136;39.010;2023-10-31T05:21:52;12.92;61.81
65396;HTU21D;52004;45.136;39.010;2023-10-31T05:24:18;13.19;62.09
65396;HTU21D;52004;45.136;39.010;2023-10-31T05:26:44;13.50;62.37
65396;HTU21D;52004;45.136;39.010;2023-10-31T05:29:10;13.82;62.29
65396;HTU21D;52004;45.136;39.010;2023-10-31T05:31:36;14.10;62.08
65396;HTU21D;52004;45.136;39.010;2023-10-31T05:34:02;14.33;62.06
65396;HTU21D;52004;45.136;39.010;2023-10-31T05:36:29;14.52;62.04
65396;HTU21D;52004;45.136;39.010;2023-10-31T05:38:55;14.82;62.54
65396;HTU21D;52004;45.136;39.010;2023-10-31T05:41:21;15.14;62.54
65396;HTU21D;52004;45.136;39.010;2023-10-31T05:43:47;15.42;62.36
65396;HTU21D;52004;45.136;39.010;2023-10-31T05:46:13;15.63;62.09
65396;HTU21D;52004;45.136;39.010;2023-10-31T05:48:46;15.80;61.95
65396;HTU21D;52004;45.136;39.010;2023-10-31T05:51:15;15.95;61.67
65396;HTU21D;52004;45.136;39.010;2023-10-31T05:53:44;16.13;62.05
65396;HTU21D;52004;45.136;39.010;2023-10-31T05:56:11;16.46;62.58
65396;HTU21D;52004;45.136;39.010;2023-10-31T05:58:37;16.84;62.70
65396;HTU21D;52004;45.136;39.010;2023-10-31T06:01:04;17.21;62.82
65396;HTU21D;52004;45.136;39.010;2023-10-31T06:03:30;17.59;62.85
65396;HTU21D;52004;45.136;39.010;2023-10-31T06:05:55;17.92;62.92
65396;HTU21D;52004;45.136;39.010;2023-10-31T06:08:21;18.22;62.72
65396;HTU21D;52004;45.136;39.010;2023-10-31T06:10:50;18.39;62.08
65396;HTU21D;52004;45.136;39.010;2023-10-31T06:13:16;18.51;62.01
65396;HTU21D;52004;45.136;39.010;2023-10-31T06:15:42;18.68;62.06
65396;HTU21D;52004;45.136;39.010;2023-10-31T06:18:08;18.85;61.93
65396;HTU21D;52004;45.136;39.010;2023-10-31T06:20:34;19.02;62.07
65396;HTU21D;52004;45.136;39.010;2023-10-31T06:23:01;19.27;62.34
65396;HTU21D;52004;45.136;39.010;2023-10-31T06:25:29;19.57;62.39
65396;HTU21D;52004;45.136;39.010;2023-10-31T06:27:55;19.90;62.52
65396;HTU21D;52004;45.136;39.010;2023-10-31T06:30:21;20.24;62.64
65396;HTU21D;52004;45.136;39.010;2023-10-31T06:32:47;20.57;62.61
65396;HTU21D;52004;45.136;39.010;2023-10-31T06:35:13;20.91;62.44
65396;HTU21D;52004;45.136;39.010;2023-10-31T06:37:39;21.19;62.32
65396;HTU21D;52004;45.136;39.010;2023-10-31T06:40:05;21.46;62.24
65396;HTU21D;52004;45.136;39.010;2023-10-31T06:42:31;21.75;62.23
65396;HTU21D;52004;45.136;39.010;2023-10-31T06:44:57;22.05;62.18
65396;HTU21D;52004;45.136;39.010;2023-10-31T06:47:23;22.32;61.96
65396;HTU21D;52004;45.136;39.010;2023-10-31T06:49:49;22.56;61.84
65396;HTU21D;52004;45.136;39.010;2023-10-31T06:52:14;22.78;61.73
65396;HTU21D;52004;45.136;39.010;2023-10-31T06:54:40;0.00;61.59
65396;HTU21D;52004;45.136;39.010;2023-10-31T06:57:06;23.13;61.52
65396;HTU21D;52004;45.136;39.010;2023-10-31T06:59:34;23.28;61.46
65396;HTU21D;52004;45.136;39.010;2023-10-31T07:02:00;23.47;61.41
65396;HTU21D;52004;45.136;39.010;2023-10-31T07:04:25;23.68;61.20
65396;HTU21D;52004;45.136;39.010;2023-10-31T07:06:51;23.84;61.18
65396;HTU21D;52004;45.136;39.010;2023-10-31T07:09:23;24.02;61.00
65396;HTU21D;52004;45.136;39.010;2023-10-31T07:11:49;24.19;61.04
65396;HTU21D;52004;45.136;39.010;2023-10-31T07:14:15;0.00;60.83
65396;HTU21D;52004;45.136;39.010;2023-10-31T07:28:43;24.23;59.90
65396;HTU21D;52004;45.136;39.010;2023-10-31T07:31:09;24.41;60.12
65396;HTU21D;52004;45.136;39.010;2023-10-31T07:33:34;24.62;60.27
65396;HTU21D;52004;45.136;39.010;2023-10-31T07:36:00;24.87;60.08
65396;HTU21D;52004;45.136;39.010;2023-10-31T07:38:26;25.06;59.95
65396;HTU21D;52004;45.136;39.010;2023-10-31T07:40:52;0.00;59.72
65396;HTU21D;52004;45.136;39.010;2023-10-31T07:43:18;25.43;59.56
65396;HTU21D;52004;45.136;39.010;2023-10-31T07:45:44;0.00;59.57
65396;HTU21D;52004;45.136;39.010;2023-10-31T07:48:09;25.81;59.54
65396;HTU21D;52004;45.136;39.010;2023-10-31T07:50:36;26.04;59.48
65396;HTU21D;52004;45.136;39.010;2023-10-31T07:53:01;26.23;59.31
65396;HTU21D;52004;45.136;39.010;2023-10-31T07:55:28;26.41;59.02
65396;HTU21D;52004;45.136;39.010;2023-10-31T07:57:54;26.55;58.72
65396;HTU21D;52004;45.136;39.010;2023-10-31T08:00:20;26.67;58.82
65396;HTU21D;52004;45.136;39.010;2023-10-31T08:02:47;26.80;58.65
65396;HTU21D;52004;45.136;39.010;2023-10-31T08:05:12;26.89;58.49
65396;HTU21D;52004;45.136;39.010;2023-10-31T08:07:38;26.99;58.53
65396;HTU21D;52004;45.136;39.010;2023-10-31T08:10:04;27.13;58.58
65396;HTU21D;52004;45.136;39.010;2023-10-31T08:12:30;27.27;58.29
65396;HTU21D;52004;45.136;39.010;2023-10-31T08:14:56;27.22;57.51
65396;HTU21D;52004;45.136;39.010;2023-10-31T08:17:24;26.90;56.55
65396;HTU21D;52004;45.136;39.010;2023-10-31T08:19:50;26.47;55.78
65396;HTU21D;52004;45.136;39.010;2023-10-31T08:22:16;25.97;55.29
65396;HTU21D;52004;45.136;39.010;2023-10-31T08:24:42;25.54;55.81
65396;HTU21D;52004;45.136;39.010;2023-10-31T08:27:08;25.35;57.18
65396;HTU21D;52004;45.136;39.010;2023-10-31T08:29:34;25.39;58.04
65396;HTU21D;52004;45.136;39.010;2023-10-31T08:31:59;25.61;58.41
65396;HTU21D;52004;45.136;39.010;2023-10-31T08:34:25;25.89;58.46
65396;HTU21D;52004;45.136;39.010;2023-10-31T08:36:51;26.22;58.59
65396;HTU21D;52004;45.136;39.010;2023-10-31T08:39:18;26.60;58.66
65396;HTU21D;52004;45.136;39.010;2023-10-31T08:44:16;27.25;58.17
65396;HTU21D;52004;45.136;39.010;2023-10-31T08:46:42;27.56;57.98
65396;HTU21D;52004;45.136;39.010;2023-10-31T08:49:08;27.82;57.70
65396;HTU21D;52004;45.136;39.010;2023-10-31T08:51:34;28.08;57.74
65396;HTU21D;52004;45.136;39.010;2023-10-31T08:54:00;28.38;57.80
65396;HTU21D;52004;45.136;39.010;2023-10-31T08:56:26;28.71;57.64
65396;HTU21D;52004;45.136;39.010;2023-10-31T08:58:53;28.98;57.42
65396;HTU21D;52004;45.136;39.010;2023-10-31T09:01:19;29.21;57.20
65396;HTU21D;52004;45.136;39.010;2023-10-31T09:03:45;29.45;57.10
65396;HTU21D;52004;45.136;39.010;2023-10-31T09:06:11;29.65;56.71
65396;HTU21D;52004;45.136;39.010;2023-10-31T09:08:37;29.80;56.57
65396;HTU21D;52004;45.136;39.010;2023-10-31T09:11:04;29.96;56.58
65396;HTU21D;52004;45.136;39.010;2023-10-31T09:13:31;30.12;56.46
65396;HTU21D;52004;45.136;39.010;2023-10-31T09:15:59;30.27;56.36
65396;HTU21D;52004;45.136;39.010;2023-10-31T09:18:25;30.42;56.11
65396;HTU21D;52004;45.136;39.010;2023-10-31T09:20:51;30.53;56.08
65396;HTU21D;52004;45.136;39.010;2023-10-31T09:23:17;30.64;56.00
65396;HTU21D;52004;45.136;39.010;2023-10-31T09:25:44;30.75;56.05
65396;HTU21D;52004;45.136;39.010;2023-10-31T09:28:10;30.89;55.95
65396;HTU21D;52004;45.136;39.010;2023-10-31T09:30:35;30.99;55.81
65396;HTU21D;52004;45.136;39.010;2023-10-31T09:33:01;31.06;55.72
65396;HTU21D;52004;45.136;39.010;2023-10-31T09:35:27;31.18;55.81
65396;HTU21D;52004;45.136;39.010;2023-10-31T09:37:53;31.31;55.78
65396;HTU21D;52004;45.136;39.010;2023-10-31T09:40:19;31.48;55.82
65396;HTU21D;52004;45.136;39.010;2023-10-31T09:42:46;31.69;55.74
65396;HTU21D;52004;45.136;39.010;2023-10-31T09:45:12;31.94;55.68
65396;HTU21D;52004;45.136;39.010;2023-10-31T09:47:39;32.15;55.44
65396;HTU21D;52004;45.136;39.010;2023-10-31T09:50:06;32.34;55.26
65396;HTU21D;52004;45.136;39.010;2023-10-31T09:52:33;0.00;55.02
65396;HTU21D;52004;45.136;39.010;2023-10-31T09:54:59;32.59;54.84
65396;HTU21D;52004;45.136;39.010;2023-10-31T09:57:25;32.64;54.74
65396;HTU21D;52004;45.136;39.010;2023-10-31T09:59:52;32.76;54.81
65396;HTU21D;52004;45.136;39.010;2023-10-31T10:02:17;32.93;54.74
65396;HTU21D;52004;45.136;39.010;2023-10-31T10:04:43;33.14;54.62
65396;HTU21D;52004;45.136;39.010;2023-10-31T10:07:09;33.34;54.50
65396;HTU21D;52004;45.136;39.010;2023-10-31T10:09:39;33.53;54.30
65396;HTU21D;52004;45.136;39.010;2023-10-31T10:12:05;33.64;54.09
65396;HTU21D;52004;45.136;39.010;2023-10-31T10:14:31;0.00;53.81
65396;HTU21D;52004;45.136;39.010;2023-10-31T10:16:57;33.70;53.68
65396;HTU21D;52004;45.136;39.010;2023-10-31T10:19:23;33.72;53.68
65396;HTU21D;52004;45.136;39.010;2023-10-31T10:21:50;33.82;53.61
65396;HTU21D;52004;45.136;39.010;2023-10-31T10:24:20;33.92;53.38
65396;HTU21D;52004;45.136;39.010;2023-10-31T10:26:46;33.92;53.14
65396;HTU21D;52004;45.136;39.010;2023-10-31T10:29:12;33.93;53.00
65396;HTU21D;52004;45.136;39.010;2023-10-31T10:31:38;0.00;52.80
65396;HTU21D;52004;45.136;39.010;2023-10-31T10:34:05;34.05;52.61
65396;HTU21D;52004;45.136;39.010;2023-10-31T10:36:31;34.12;52.33
65396;HTU21D;52004;45.136;39.010;2023-10-31T10:38:58;34.16;52.00
65396;HTU21D;52004;45.136;39.010;2023-10-31T10:41:24;34.16;51.59
65396;HTU21D;52004;45.136;39.010;2023-10-31T10:43:54;0.00;51.08
65396;HTU21D;52004;45.136;39.010;2023-10-31T10:46:20;33.80;50.85
65396;HTU21D;52004;45.136;39.010;2023-10-31T10:48:47;33.68;50.61
65396;HTU21D;52004;45.136;39.010;2023-10-31T10:51:18;33.60;50.38
65396;HTU21D;52004;45.136;39.010;2023-10-31T10:53:51;33.59;50.08
65396;HTU21D;52004;45.136;39.010;2023-10-31T10:57:25;0.00;49.69
65396;HTU21D;52004;45.136;39.010;2023-10-31T10:59:19;33.56;49.26
65396;HTU21D;52004;45.136;39.010;2023-10-31T11:01:46;33.52;48.89
65396;HTU21D;52004;45.136;39.010;2023-10-31T11:04:14;0.00;48.53
65396;HTU21D;52004;45.136;39.010;2023-10-31T11:06:41;0.00;48.17
65396;HTU21D;52004;45.136;39.010;2023-10-31T11:09:08;33.33;47.92
65396;HTU21D;52004;45.136;39.010;2023-10-31T11:11:37;33.27;47.61
65396;HTU21D;52004;45.136;39.010;2023-10-31T11:14:03;33.18;47.19
65396;HTU21D;52004;45.136;39.010;2023-10-31T11:16:30;33.03;46.96
65396;HTU21D;52004;45.136;39.010;2023-10-31T11:19:00;32.90;46.81
65396;HTU21D;52004;45.136;39.010;2023-10-31T11:21:29;0.00;46.56
65396;HTU21D;52004;45.136;39.010;2023-10-31T11:23:58;0.00;46.37
65396;HTU21D;52004;45.136;39.010;2023-10-31T11:26:29;32.57;46.20
65396;HTU21D;52004;45.136;39.010;2023-10-31T11:29:05;32.45;46.06
65396;HTU21D;52004;45.136;39.010;2023-10-31T11:31:31;32.35;45.95
65396;HTU21D;52004;45.136;39.010;2023-10-31T11:34:02;32.25;45.81
65396;HTU21D;52004;45.136;39.010;2023-10-31T11:36:30;32.16;45.70
65396;HTU21D;52004;45.136;39.010;2023-10-31T11:39:15;32.09;45.60
65396;HTU21D;52004;45.136;39.010;2023-10-31T11:41:45;32.03;45.53
65396;HTU21D;52004;45.136;39.010;2023-10-31T11:44:14;31.92;45.25
65396;HTU21D;52004;45.136;39.010;2023-10-31T11:46:40;31.78;45.32
65396;HTU21D;52004;45.136;39.010;2023-10-31T11:49:06;31.70;45.35
65396;HTU21D;52004;45.136;39.010;2023-10-31T11:51:32;31.65;45.35
65396;HTU21D;52004;45.136;39.010;2023-10-31T11:54:02;31.60;45.28
65396;HTU21D;52004;45.136;39.010;2023-10-31T11:56:28;31.57;45.34
65396;HTU21D;52004;45.136;39.010;2023-10-31T11:58:57;31.55;45.31
65396;HTU21D;52004;45.136;39.010;2023-10-31T12:01:23;31.54;45.28
65396;HTU21D;52004;45.136;39.010;2023-10-31T12:03:50;31.54;45.29
65396;HTU21D;52004;45.136;39.010;2023-10-31T12:06:17;31.57;45.34
65396;HTU21D;52004;45.136;39.010;2023-10-31T12:08:44;31.59;45.20
65396;HTU21D;52004;45.136;39.010;2023-10-31T12:11:11;31.53;45.21
65396;HTU21D;52004;45.136;39.010;2023-10-31T12:13:37;31.48;45.35
65396;HTU21D;52004;45.136;39.010;2023-10-31T12:16:04;31.44;45.35
65396;HTU21D;52004;45.136;39.010;2023-10-31T12:18:31;31.45;45.38
65396;HTU21D;52004;45.136;39.010;2023-10-31T12:20:57;31.45;45.35
65396;HTU21D;52004;45.136;39.010;2023-10-31T12:23:23;31.46;45.40
65396;HTU21D;52004;45.136;39.010;2023-10-31T12:33:55;31.34;45.21
65396;HTU21D;52004;45.136;39.010;2023-10-31T12:36:21;31.29;45.25
65396;HTU21D;52004;45.136;39.010;2023-10-31T12:38:47;31.21;45.27
65396;HTU21D;52004;45.136;39.010;2023-10-31T12:41:14;31.11;45.37
65396;HTU21D;52004;45.136;39.010;2023-10-31T12:43:40;31.04;45.45
65396;HTU21D;52004;45.136;39.010;2023-10-31T12:48:50;0.00;45.46
65396;HTU21D;52004;45.136;39.010;2023-10-31T12:51:17;30.86;45.54
65396;HTU21D;52004;45.136;39.010;2023-10-31T12:53:53;30.74;45.61
65396;HTU21D;52004;45.136;39.010;2023-10-31T12:56:38;30.61;45.66
65396;HTU21D;52004;45.136;39.010;2023-10-31T12:59:09;30.47;45.77
65396;HTU21D;52004;45.136;39.010;2023-10-31T13:01:43;0.00;45.68
65396;HTU21D;52004;45.136;39.010;2023-10-31T13:04:10;0.00;45.60
65396;HTU21D;52004;45.136;39.010;2023-10-31T13:06:37;30.02;45.67
65396;HTU21D;52004;45.136;39.010;2023-10-31T13:09:03;0.00;45.86
65396;HTU21D;52004;45.136;39.010;2023-10-31T13:11:39;29.74;46.01
65396;HTU21D;52004;45.136;39.010;2023-10-31T13:14:05;29.65;46.11
65396;HTU21D;52004;45.136;39.010;2023-10-31T13:16:32;29.58;46.10
65396;HTU21D;52004;45.136;39.010;2023-10-31T13:18:59;29.47;46.13
65396;HTU21D;52004;45.136;39.010;2023-10-31T13:21:25;29.32;46.16
65396;HTU21D;52004;45.136;39.010;2023-10-31T13:23:51;29.23;46.06
65396;HTU21D;52004;45.136;39.010;2023-10-31T13:26:17;0.00;45.86
65396;HTU21D;52004;45.136;39.010;2023-10-31T13:28:43;28.99;45.73
65396;HTU21D;52004;45.136;39.010;2023-10-31T13:31:08;28.82;45.71
65396;HTU21D;52004;45.136;39.010;2023-10-31T13:33:36;28.63;45.77
65396;HTU21D;52004;45.136;39.010;2023-10-31T13:36:02;0.00;45.77
65396;HTU21D;52004;45.136;39.010;2023-10-31T13:38:29;28.21;45.75
65396;HTU21D;52004;45.136;39.010;2023-10-31T13:40:55;28.00;45.81
65396;HTU21D;52004;45.136;39.010;2023-10-31T13:43:21;27.75;45.86
65396;HTU21D;52004;45.136;39.010;2023-10-31T13:45:47;27.54;45.93
65396;HTU21D;52004;45.136;39.010;2023-10-31T13:48:13;27.32;45.96
65396;HTU21D;52004;45.136;39.010;2023-10-31T13:50:40;27.11;46.02
65396;HTU21D;52004;45.136;39.010;2023-10-31T13:53:06;26.92;46.08
65396;HTU21D;52004;45.136;39.010;2023-10-31T13:55:33;26.73;46.12
65396;HTU21D;52004;45.136;39.010;2023-10-31T13:57:59;26.52;46.17
65396;HTU21D;52004;45.136;39.010;2023-10-31T14:00:25;26.34;46.25
65396;HTU21D;52004;45.136;39.010;2023-10-31T14:02:51;26.11;46.35
65396;HTU21D;52004;45.136;39.010;2023-10-31T14:05:17;25.91;46.47
65396;HTU21D;52004;45.136;39.010;2023-10-31T14:07:43;0.00;46.55
65396;HTU21D;52004;45.136;39.010;2023-10-31T14:10:10;25.52;46.64
65396;HTU21D;52004;45.136;39.010;2023-10-31T14:12:35;25.35;46.70
65396;HTU21D;52004;45.136;39.010;2023-10-31T14:15:01;25.17;46.79
65396;HTU21D;52004;45.136;39.010;2023-10-31T14:17:27;24.99;46.89
65396;HTU21D;52004;45.136;39.010;2023-10-31T14:19:53;24.82;46.98
65396;HTU21D;52004;45.136;39.010;2023-10-31T14:22:19;24.68;47.03
65396;HTU21D;52004;45.136;39.010;2023-10-31T14:24:45;24.54;47.09
65396;HTU21D;52004;45.136;39.010;2023-10-31T14:27:12;24.39;47.15
65396;HTU21D;52004;45.136;39.010;2023-10-31T14:29:38;24.24;47.22
65396;HTU21D;52004;45.136;39.010;2023-10-31T14:32:07;24.12;47.27
65396;HTU21D;52004;45.136;39.010;2023-10-31T14:34:33;23.98;47.34
65396;HTU21D;52004;45.136;39.010;2023-10-31T14:36:59;23.86;47.41
65396;HTU21D;52004;45.136;39.010;2023-10-31T14:39:25;23.74;47.46
65396;HTU21D;52004;45.136;39.010;2023-10-31T14:41:51;23.62;47.52
65396;HTU21D;52004;45.136;39.010;2023-10-31T14:44:17;23.51;47.58
65396;HTU21D;52004;45.136;39.010;2023-10-31T14:46:43;23.39;47.66
65396;HTU21D;52004;45.136;39.010;2023-10-31T14:49:09;23.27;47.70
65396;HTU21D;52004;45.136;39.010;2023-10-31T14:51:36;0.00;47.77
65396;HTU21D;52004;45.136;39.010;2023-10-31T14:54:02;23.05;47.85
65396;HTU21D;52004;45.136;39.010;2023-10-31T14:56:28;22.94;47.91
65396;HTU21D;52004;45.136;39.010;2023-10-31T14:58:55;22.84;47.96
65396;HTU21D;52004;45.136;39.010;2023-10-31T15:01:21;22.72;48.01
65396;HTU21D;52004;45.136;39.010;2023-10-31T15:03:47;22.61;48.10
65396;HTU21D;52004;45.136;39.010;2023-10-31T15:06:13;22.52;48.18
65396;HTU21D;52004;45.136;39.010;2023-10-31T15:08:41;22.42;48.24
65396;HTU21D;52004;45.136;39.010;2023-10-31T15:11:07;22.35;48.31
65396;HTU21D;52004;45.136;39.010;2023-10-31T15:13:33;22.26;48.34
65396;HTU21D;52004;45.136;39.010;2023-10-31T15:15:59;22.21;48.37
65396;HTU21D;52004;45.136;39.010;2023-10-31T15:18:25;22.17;48.40
65396;HTU21D;52004;45.136;39.010;2023-10-31T15:20:51;22.11;48.41
65396;HTU21D;52004;45.136;39.010;2023-10-31T15:23:19;22.07;48.41
65396;HTU21D;52004;45.136;39.010;2023-10-31T15:25:45;21.99;48.45
65396;HTU21D;52004;45.136;39.010;2023-10-31T15:28:11;0.00;48.48